Time;durP1;ratioP1;P1;durP2;ratioP2;P2;SDS_P1;SDS_P2;PMS_P1;PMS_P2;Temp;Humidity;BMP_temperature;BMP_pressure;BME280_temperature;BME280_humidity;BME280_pressure;Samples;Min_cycle;Max_cycle;Signal;HPM_P1;HPM_P2
2022/03/30 04:00:20;;;;;;;2.60;2.00;;;4.60;99.90;;;;;;5914734;23;20632;-68
2022/03/30 04:02:46;;;;;;;3.10;1.50;;;4.60;99.90;;;;;;4891004;29;20279;-68
2022/03/30 04:05:14;;;;;;;2.35;2.10;;;4.60;99.90;;;;;;4907976;29;20210;-68
2022/03/30 04:07:41;;;;;;;4.03;2.17;;;4.60;99.90;;;;;;4901509;29;20230;-68
2022/03/30 04:10:10;;;;;;;1.70;1.60;;;4.60;99.90;;;;;;4896002;29;20398;-67
2022/03/30 04:12:37;;;;;;;2.35;1.77;;;4.60;99.90;;;;;;4897265;29;20231;-66
2022/03/30 04:15:05;;;;;;;2.58;1.70;;;4.60;99.90;;;;;;4892730;29;20615;-67
2022/03/30 04:17:33;;;;;;;2.33;1.58;;;4.60;99.90;;;;;;4896897;29;20211;-67
2022/03/30 04:20:00;;;;;;;4.45;2.00;;;4.60;99.90;;;;;;4895424;29;20207;-67
2022/03/30 04:22:27;;;;;;;11.55;2.10;;;4.70;99.90;;;;;;4896671;29;20271;-68
2022/03/30 04:24:53;;;;;;;2.30;1.52;;;4.70;99.90;;;;;;4896688;29;20212;-68
2022/03/30 04:27:20;;;;;;;3.85;1.65;;;4.60;99.90;;;;;;4896941;29;20267;-68
2022/03/30 04:29:46;;;;;;;6.85;1.50;;;4.60;99.90;;;;;;4887899;29;20224;-69
2022/03/30 04:32:13;;;;;;;3.97;1.73;;;4.70;99.90;;;;;;4887603;29;20227;-69
2022/03/30 04:34:41;;;;;;;5.57;1.60;;;4.60;99.90;;;;;;4897189;29;20214;-66
2022/03/30 04:37:08;;;;;;;4.38;1.80;;;4.70;99.90;;;;;;4896069;29;20233;-67
2022/03/30 04:39:35;;;;;;;2.10;1.52;;;4.70;99.90;;;;;;4896136;29;20587;-68
2022/03/30 04:42:02;;;;;;;1.70;1.60;;;4.70;99.90;;;;;;4897062;29;20354;-68
2022/03/30 04:44:29;;;;;;;6.97;2.42;;;4.70;99.90;;;;;;4890580;29;20204;-67
2022/03/30 04:46:55;;;;;;;3.67;1.98;;;4.70;99.90;;;;;;4888016;29;20255;-68
2022/03/30 04:49:22;;;;;;;2.30;1.52;;;4.70;99.90;;;;;;4888133;29;20260;-68
2022/03/30 04:51:50;;;;;;;4.30;2.08;;;4.70;99.90;;;;;;4886082;29;20227;-68
2022/03/30 04:54:18;;;;;;;2.38;2.17;;;4.80;99.90;;;;;;4895228;29;20664;-66
2022/03/30 04:56:47;;;;;;;9.60;2.15;;;4.70;99.90;;;;;;4892518;29;20212;-67
2022/03/30 04:59:14;;;;;;;2.40;2.30;;;4.80;99.90;;;;;;4892512;29;20207;-67
2022/03/30 05:01:41;;;;;;;2.40;2.17;;;4.80;99.90;;;;;;4895352;29;20235;-67
2022/03/30 05:04:08;;;;;;;3.25;2.00;;;4.80;99.90;;;;;;4891579;29;20207;-67
2022/03/30 05:06:35;;;;;;;8.02;3.63;;;4.80;99.90;;;;;;4895921;29;20218;-67
2022/03/30 05:09:03;;;;;;;7.88;2.88;;;4.80;99.90;;;;;;4895838;29;20230;-67
2022/03/30 05:11:31;;;;;;;6.30;2.90;;;4.80;99.90;;;;;;4895879;29;20741;-67
2022/03/30 05:13:58;;;;;;;4.00;2.38;;;4.80;99.90;;;;;;4892090;29;20212;-67
2022/03/30 05:16:24;;;;;;;2.53;2.42;;;4.80;99.90;;;;;;4898423;29;20712;-67
2022/03/30 05:18:51;;;;;;;3.55;2.60;;;4.80;99.90;;;;;;4889731;29;20623;-66
2022/03/30 05:21:18;;;;;;;2.92;2.33;;;4.70;99.90;;;;;;4896802;29;20708;-68
2022/03/30 05:23:44;;;;;;;4.78;2.63;;;4.80;99.90;;;;;;4895710;29;20330;-68
2022/03/30 05:26:12;;;;;;;2.13;1.95;;;4.80;99.90;;;;;;4889393;29;20271;-68
2022/03/30 05:28:40;;;;;;;4.72;1.90;;;4.70;99.90;;;;;;4895537;29;20267;-68
2022/03/30 05:31:07;;;;;;;2.17;2.03;;;4.70;99.90;;;;;;4890194;29;20228;-68
2022/03/30 05:33:34;;;;;;;4.70;3.00;;;4.70;99.90;;;;;;4885297;29;20246;-66
2022/03/30 05:36:01;;;;;;;6.22;2.88;;;4.70;99.90;;;;;;4895031;29;20203;-66
2022/03/30 05:38:27;;;;;;;5.13;2.47;;;4.70;99.90;;;;;;4894536;29;20264;-67
2022/03/30 05:40:54;;;;;;;5.97;3.85;;;4.70;99.90;;;;;;4894450;29;20632;-67
2022/03/30 05:43:22;;;;;;;9.52;2.70;;;4.70;99.90;;;;;;4890482;29;20204;-67
2022/03/30 05:45:49;;;;;;;3.75;2.20;;;4.70;99.90;;;;;;4879534;29;20689;-67
2022/03/30 05:48:17;;;;;;;2.58;2.38;;;4.70;99.90;;;;;;4891408;29;20254;-67
2022/03/30 05:50:45;;;;;;;2.25;2.15;;;4.70;99.90;;;;;;4894048;29;20235;-67
2022/03/30 05:53:11;;;;;;;2.15;2.10;;;4.70;99.90;;;;;;4884236;29;20203;-66
2022/03/30 05:55:38;;;;;;;2.38;2.28;;;4.70;99.90;;;;;;4893697;29;20678;-67
2022/03/30 05:58:05;;;;;;;2.17;1.83;;;4.50;99.90;;;;;;4887824;29;20262;-67
2022/03/30 06:00:33;;;;;;;2.72;2.50;;;4.30;99.90;;;;;;4891152;29;20303;-67
2022/03/30 06:03:00;;;;;;;6.22;2.25;;;4.30;99.90;;;;;;4890593;29;20211;-66
2022/03/30 06:05:27;;;;;;;3.00;2.25;;;4.20;99.90;;;;;;4888771;29;20318;-66
2022/03/30 06:07:57;;;;;;;2.17;1.83;;;4.20;99.90;;;;;;4891763;29;20211;-66
2022/03/30 06:10:25;;;;;;;3.50;1.27;;;4.20;99.90;;;;;;4883539;29;20323;-67
2022/03/30 06:12:52;;;;;;;3.47;2.58;;;4.10;99.90;;;;;;4885992;29;20604;-67
2022/03/30 06:15:19;;;;;;;3.63;1.90;;;4.10;99.90;;;;;;4890668;29;20649;-66
2022/03/30 06:17:49;;;;;;;3.63;2.08;;;4.00;99.90;;;;;;4888201;29;20218;-66
2022/03/30 06:20:16;;;;;;;1.70;1.60;;;4.10;99.90;;;;;;4890369;29;20203;-66
2022/03/30 06:22:43;;;;;;;4.53;1.73;;;4.10;99.90;;;;;;4893366;29;20213;-66
2022/03/30 06:25:10;;;;;;;2.80;1.60;;;4.10;99.90;;;;;;4888766;29;20211;-66
2022/03/30 06:27:37;;;;;;;3.65;2.00;;;4.10;99.90;;;;;;4894746;29;20559;-66
2022/03/30 06:30:05;;;;;;;2.13;1.25;;;4.00;99.90;;;;;;4894061;29;20802;-66
2022/03/30 06:32:31;;;;;;;2.20;2.10;;;4.00;99.90;;;;;;4893568;29;20227;-66
2022/03/30 06:34:59;;;;;;;5.82;1.60;;;4.00;99.90;;;;;;4883646;29;20212;-66
2022/03/30 06:37:26;;;;;;;1.85;1.70;;;4.10;99.90;;;;;;4887815;29;20207;-67
2022/03/30 06:39:52;;;;;;;1.45;1.35;;;4.10;99.90;;;;;;4890643;29;20271;-67
2022/03/30 06:42:19;;;;;;;8.90;2.17;;;4.10;99.90;;;;;;4892444;29;20276;-67
2022/03/30 06:44:46;;;;;;;2.55;2.08;;;4.10;99.90;;;;;;4898778;29;20203;-67
2022/03/30 06:47:13;;;;;;;2.78;1.60;;;4.10;99.90;;;;;;4898369;29;20207;-66
2022/03/30 06:49:40;;;;;;;2.78;1.88;;;4.20;99.90;;;;;;4887739;29;20231;-67
2022/03/30 06:52:10;;;;;;;7.05;1.77;;;4.10;99.90;;;;;;4888880;29;20219;-67
2022/03/30 06:54:38;;;;;;;6.40;2.05;;;4.20;99.90;;;;;;4888502;29;20223;-67
2022/03/30 06:57:05;;;;;;;1.65;1.55;;;4.30;99.90;;;;;;4893028;29;20442;-66
2022/03/30 06:59:32;;;;;;;5.55;3.03;;;4.30;99.90;;;;;;4891654;29;20207;-66
2022/03/30 07:01:59;;;;;;;6.50;2.65;;;4.30;99.90;;;;;;4897361;29;20321;-66
2022/03/30 07:04:26;;;;;;;4.80;3.00;;;4.30;99.90;;;;;;4892731;29;20211;-67
2022/03/30 07:12:22;;;;;;;8.70;2.72;;;4.30;99.90;;;;;;4893739;29;20234;-67
2022/03/30 07:14:49;;;;;;;2.80;2.40;;;4.30;99.90;;;;;;4891148;29;20215;-67
2022/03/30 07:17:16;;;;;;;2.30;2.10;;;4.30;99.90;;;;;;4894518;29;20244;-67
2022/03/30 07:19:43;;;;;;;2.38;2.03;;;4.40;99.90;;;;;;4895590;29;20259;-67
2022/03/30 07:22:13;;;;;;;6.78;1.85;;;4.40;99.90;;;;;;4893371;29;20708;-67
2022/03/30 07:24:41;;;;;;;5.25;2.08;;;4.40;99.90;;;;;;4897253;29;20365;-67
2022/03/30 07:27:08;;;;;;;2.60;2.53;;;4.50;99.90;;;;;;4893384;29;20289;-67
2022/03/30 07:29:35;;;;;;;6.72;2.65;;;4.50;99.90;;;;;;4896859;29;20255;-66
2022/03/30 07:32:02;;;;;;;5.22;2.03;;;4.50;99.90;;;;;;4896269;29;20231;-67
2022/03/30 07:34:29;;;;;;;2.50;2.38;;;4.50;99.90;;;;;;4894712;29;20875;-67
2022/03/30 07:36:56;;;;;;;1.80;1.70;;;4.50;99.90;;;;;;4884934;29;20212;-66
2022/03/30 07:39:23;;;;;;;8.65;2.67;;;4.60;99.90;;;;;;4894459;29;20265;-66
2022/03/30 07:41:51;;;;;;;5.47;2.53;;;4.70;99.90;;;;;;4896006;29;20223;-66
2022/03/30 07:44:18;;;;;;;3.75;2.10;;;4.70;99.90;;;;;;4897411;29;20207;-66
2022/03/30 07:46:48;;;;;;;3.47;1.90;;;4.80;99.90;;;;;;4888370;29;20209;-66
2022/03/30 07:49:15;;;;;;;3.20;1.77;;;4.80;99.90;;;;;;4895174;29;20210;-66
2022/03/30 07:51:42;;;;;;;2.03;1.85;;;4.80;99.90;;;;;;4895442;29;20235;-67
2022/03/30 07:54:08;;;;;;;2.85;2.30;;;4.80;99.90;;;;;;4894269;29;20215;-67
2022/03/30 07:56:35;;;;;;;4.18;1.85;;;4.80;99.90;;;;;;4896287;29;20238;-67
2022/03/30 07:59:03;;;;;;;3.95;2.42;;;4.80;99.90;;;;;;4893081;29;20211;-66
2022/03/30 08:01:30;;;;;;;4.80;1.90;;;4.90;99.90;;;;;;4896924;29;20239;-66
2022/03/30 08:03:56;;;;;;;2.10;1.98;;;4.90;99.90;;;;;;4897481;29;20274;-66
2022/03/30 08:06:23;;;;;;;2.10;2.00;;;4.90;99.90;;;;;;4897277;29;20206;-67
2022/03/30 08:08:50;;;;;;;3.53;2.40;;;5.00;99.90;;;;;;4896618;29;20211;-66
2022/03/30 08:11:16;;;;;;;1.73;1.63;;;5.10;99.90;;;;;;4896187;29;20235;-66
2022/03/30 08:13:43;;;;;;;2.17;1.65;;;5.10;99.90;;;;;;4897074;29;20267;-66
2022/03/30 08:16:11;;;;;;;1.92;1.83;;;5.10;99.90;;;;;;4896642;29;20219;-67
2022/03/30 08:18:37;;;;;;;3.00;2.67;;;5.20;99.90;;;;;;4897276;29;20270;-66
2022/03/30 08:23:48;;;;;;;1.63;1.52;;;5.30;99.90;;;;;;4889897;29;20234;-67
2022/03/30 08:26:15;;;;;;;9.15;2.30;;;5.30;99.90;;;;;;4896709;29;20219;-67
2022/03/30 08:28:42;;;;;;;3.60;2.42;;;5.40;99.90;;;;;;4897192;29;20215;-67
2022/03/30 08:31:09;;;;;;;5.53;2.15;;;5.40;99.90;;;;;;4896028;29;20223;-67
2022/03/30 08:33:37;;;;;;;3.67;1.73;;;5.40;99.90;;;;;;4896973;29;20320;-66
2022/03/30 08:36:04;;;;;;;1.17;1.17;;;5.50;99.90;;;;;;4896625;29;20680;-66
2022/03/30 08:38:30;;;;;;;1.23;1.23;;;5.50;99.90;;;;;;4896506;29;20215;-67
2022/03/30 08:40:58;;;;;;;1.20;1.20;;;5.50;99.90;;;;;;4896072;29;20227;-66
2022/03/30 08:43:26;;;;;;;2.20;1.35;;;5.50;99.90;;;;;;4890075;29;20306;-67
2022/03/30 08:45:55;;;;;;;1.45;1.35;;;5.50;99.90;;;;;;4896417;29;20207;-64
2022/03/30 08:48:21;;;;;;;1.60;1.58;;;5.50;99.90;;;;;;4896425;29;20207;-66
2022/03/30 08:50:51;;;;;;;2.95;2.10;;;5.50;99.90;;;;;;4895822;29;20286;-67
2022/03/30 08:53:18;;;;;;;2.78;1.20;;;5.60;99.90;;;;;;4896515;29;20238;-66
2022/03/30 08:55:44;;;;;;;2.22;1.60;;;5.60;99.90;;;;;;4895969;29;20230;-65
2022/03/30 08:58:11;;;;;;;2.88;1.70;;;5.70;99.90;;;;;;4896623;29;20207;-66
2022/03/30 09:00:38;;;;;;;2.80;1.70;;;5.70;99.90;;;;;;4895274;29;20235;-65
2022/03/30 09:03:07;;;;;;;6.65;2.17;;;5.80;99.90;;;;;;4896821;29;20688;-67
2022/03/30 09:05:37;;;;;;;1.80;1.80;;;5.80;99.90;;;;;;4895431;29;20211;-65
2022/03/30 09:08:13;;;;;;;2.40;1.48;;;5.90;99.90;;;;;;4896193;29;20298;-67
2022/03/30 09:10:42;;;;;;;2.05;1.85;;;5.90;99.90;;;;;;4895355;29;20239;-66
2022/03/30 09:13:10;;;;;;;1.83;1.73;;;6.00;99.90;;;;;;4896348;29;20235;-66
2022/03/30 09:15:39;;;;;;;1.45;1.35;;;6.00;99.90;;;;;;4887799;29;20279;-67
2022/03/30 09:18:07;;;;;;;3.50;1.63;;;6.00;99.90;;;;;;4895627;29;20747;-66
2022/03/30 09:20:35;;;;;;;1.63;1.52;;;6.10;99.90;;;;;;4894992;29;20235;-66
2022/03/30 09:23:02;;;;;;;2.10;1.92;;;6.20;99.90;;;;;;4896134;29;20226;-66
2022/03/30 09:25:32;;;;;;;2.38;1.90;;;6.20;99.90;;;;;;4888553;29;20583;-66
2022/03/30 09:28:00;;;;;;;2.22;2.03;;;6.30;99.90;;;;;;4895706;29;20203;-66
2022/03/30 09:30:29;;;;;;;2.10;1.70;;;6.30;99.90;;;;;;4894680;29;20235;-66
2022/03/30 09:32:57;;;;;;;1.77;1.75;;;6.20;99.90;;;;;;4895777;29;20221;-66
2022/03/30 09:35:25;;;;;;;2.45;2.28;;;6.40;99.90;;;;;;4895704;29;20223;-66
2022/03/30 09:38:09;;;;;;;1.67;1.58;;;6.50;99.90;;;;;;4896062;29;20218;-66
2022/03/30 09:40:43;;;;;;;1.85;1.85;;;6.70;99.90;;;;;;4894645;29;20232;-66
2022/03/30 09:43:20;;;;;;;2.08;1.98;;;6.70;99.90;;;;;;4895989;29;20621;-66
2022/03/30 09:45:48;;;;;;;3.05;1.92;;;6.90;99.90;;;;;;4895325;29;20217;-66
2022/03/30 09:48:19;;;;;;;2.25;2.15;;;7.00;99.90;;;;;;4895483;29;20274;-66
2022/03/30 09:50:48;;;;;;;2.45;2.42;;;7.00;99.90;;;;;;4895016;29;20253;-66
2022/03/30 09:53:17;;;;;;;1.75;1.73;;;7.00;99.90;;;;;;4895722;29;20700;-66
2022/03/30 09:56:00;;;;;;;3.08;1.85;;;7.00;99.90;;;;;;4895375;29;20247;-66
2022/03/30 09:58:29;;;;;;;6.05;2.72;;;7.20;99.90;;;;;;4896203;29;20282;-67
2022/03/30 10:01:11;;;;;;;2.65;2.42;;;7.30;99.90;;;;;;4897243;29;20239;-67
2022/03/30 10:03:46;;;;;;;2.67;1.88;;;7.30;99.90;;;;;;4892655;29;20207;-67
2022/03/30 10:06:15;;;;;;;8.40;2.42;;;7.30;99.90;;;;;;4895386;29;20616;-67
2022/03/30 10:08:43;;;;;;;3.60;2.38;;;7.20;99.90;;;;;;4895104;29;20262;-67
2022/03/30 10:11:15;;;;;;;3.10;2.75;;;7.30;99.90;;;;;;4894793;29;20256;-67
2022/03/30 10:13:43;;;;;;;2.80;2.65;;;7.30;99.90;;;;;;4895571;29;20529;-67
2022/03/30 10:16:10;;;;;;;2.55;2.40;;;7.40;99.90;;;;;;4886980;29;20554;-66
2022/03/30 10:18:38;;;;;;;2.83;2.33;;;7.50;99.90;;;;;;4897762;29;20669;-67
2022/03/30 10:21:15;;;;;;;1.95;1.85;;;7.60;99.90;;;;;;4895843;29;20227;-67
2022/03/30 10:23:55;;;;;;;3.28;2.00;;;7.70;99.90;;;;;;4897475;29;20833;-67
2022/03/30 10:26:33;;;;;;;5.93;2.58;;;7.70;99.90;;;;;;4898518;29;20266;-67
2022/03/30 10:29:05;;;;;;;3.50;1.85;;;7.60;99.90;;;;;;4895416;29;20267;-67
2022/03/30 10:31:32;;;;;;;2.20;2.10;;;7.50;99.90;;;;;;4897528;29;20278;-66
2022/03/30 10:33:58;;;;;;;2.85;2.63;;;7.50;99.90;;;;;;4898311;29;20622;-67
2022/03/30 10:36:28;;;;;;;2.35;2.05;;;7.50;99.90;;;;;;4899248;29;20215;-66
2022/03/30 10:39:08;;;;;;;2.60;2.50;;;7.50;99.90;;;;;;4898875;29;20260;-66
2022/03/30 10:41:53;;;;;;;2.40;2.03;;;7.50;99.90;;;;;;4881167;29;20228;-66
2022/03/30 10:44:38;;;;;;;3.13;1.92;;;7.50;99.90;;;;;;4890809;29;20697;-66
2022/03/30 10:47:10;;;;;;;4.68;2.20;;;7.60;99.90;;;;;;4896559;29;20203;-67
2022/03/30 10:49:45;;;;;;;2.70;2.50;;;7.70;99.90;;;;;;4898896;29;20211;-66
2022/03/30 10:52:40;;;;;;;4.07;3.88;;;7.80;99.90;;;;;;4897309;29;20239;-66
2022/03/30 10:55:30;;;;;;;1.58;1.52;;;7.70;99.90;;;;;;4895902;29;20196;-66
2022/03/30 10:58:01;;;;;;;3.28;3.00;;;7.70;99.90;;;;;;4905676;29;20202;-66
2022/03/30 11:00:31;;;;;;;2.00;1.90;;;7.50;99.90;;;;;;4895038;29;20225;-66
2022/03/30 11:03:16;;;;;;;2.33;2.00;;;7.40;99.90;;;;;;4891262;29;20208;-67
2022/03/30 11:05:47;;;;;;;3.78;1.90;;;7.40;99.90;;;;;;4887996;29;20207;-67
2022/03/30 11:08:51;;;;;;;1.90;1.80;;;7.40;99.90;;;;;;4898126;29;20260;-66
2022/03/30 11:11:22;;;;;;;3.33;1.77;;;7.40;99.90;;;;;;4887009;29;20235;-66
2022/03/30 11:14:06;;;;;;;2.35;2.25;;;7.60;99.90;;;;;;4891620;29;20598;-66
2022/03/30 11:16:48;;;;;;;4.90;2.22;;;7.60;99.90;;;;;;4894813;29;20215;-66
2022/03/30 11:19:15;;;;;;;1.85;1.85;;;7.60;99.90;;;;;;4879704;29;20525;-66
2022/03/30 11:21:53;;;;;;;2.28;1.85;;;7.70;99.90;;;;;;4879061;29;20260;-66
2022/03/30 11:24:21;;;;;;;2.05;1.20;;;7.60;99.90;;;;;;4879996;29;20295;-67
2022/03/30 11:27:19;;;;;;;2.42;2.08;;;7.70;99.90;;;;;;4879456;29;20287;-66
2022/03/30 11:29:59;;;;;;;1.70;1.70;;;7.80;99.90;;;;;;4880263;29;20216;-66
2022/03/30 11:33:00;;;;;;;1.77;1.40;;;7.80;99.90;;;;;;4889326;29;20250;-66
2022/03/30 11:35:39;;;;;;;1.80;1.70;;;7.90;99.90;;;;;;4888560;29;20406;-66
2022/03/30 11:38:12;;;;;;;2.20;2.03;;;7.90;99.90;;;;;;4879494;29;20243;-65
2022/03/30 11:40:42;;;;;;;2.45;1.63;;;7.90;99.90;;;;;;4877966;29;20335;-66
2022/03/30 11:43:10;;;;;;;1.70;1.60;;;7.90;99.90;;;;;;4879716;29;20217;-65
2022/03/30 11:45:39;;;;;;;1.45;1.45;;;7.80;99.90;;;;;;4878568;29;20212;-66
2022/03/30 11:48:08;;;;;;;1.80;1.70;;;7.80;99.90;;;;;;4879604;29;20216;-66
2022/03/30 11:50:37;;;;;;;2.00;1.90;;;7.80;99.90;;;;;;4886156;29;20557;-66
2022/03/30 11:53:05;;;;;;;3.22;2.00;;;7.70;99.90;;;;;;4885192;29;20403;-66
2022/03/30 11:55:35;;;;;;;1.90;1.85;;;7.60;99.90;;;;;;4892180;29;20230;-66
2022/03/30 11:58:03;;;;;;;3.30;2.20;;;7.60;99.90;;;;;;4897164;29;20214;-66
2022/03/30 12:00:31;;;;;;;2.40;2.30;;;7.50;99.90;;;;;;4888912;29;20207;-67
2022/03/30 12:03:01;;;;;;;2.90;2.17;;;7.40;99.90;;;;;;4895334;29;20235;-66
2022/03/30 12:05:28;;;;;;;2.50;1.90;;;7.40;99.90;;;;;;4897347;29;20217;-66
2022/03/30 12:07:56;;;;;;;2.15;1.95;;;7.40;99.90;;;;;;4898394;29;20704;-67
2022/03/30 12:10:27;;;;;;;1.60;1.50;;;7.40;99.90;;;;;;4899213;29;20298;-67
2022/03/30 12:12:55;;;;;;;3.70;1.80;;;7.40;99.90;;;;;;4900743;29;20286;-66
2022/03/30 12:15:22;;;;;;;2.40;1.48;;;7.40;99.90;;;;;;4899255;29;20210;-65
2022/03/30 12:17:53;;;;;;;3.40;1.55;;;7.30;99.90;;;;;;4896969;29;20497;-65
2022/03/30 12:20:30;;;;;;;3.22;1.75;;;7.20;99.90;;;;;;4895913;29;20210;-65
2022/03/30 12:22:59;;;;;;;1.48;1.45;;;7.20;99.90;;;;;;4896771;29;20207;-65
2022/03/30 12:25:28;;;;;;;1.27;1.23;;;7.20;99.90;;;;;;4896614;29;20294;-65
2022/03/30 12:27:55;;;;;;;2.47;2.10;;;7.20;99.90;;;;;;4896776;29;20239;-66
2022/03/30 12:30:22;;;;;;;2.00;2.00;;;7.20;99.90;;;;;;4895402;29;20267;-66
2022/03/30 12:32:49;;;;;;;3.33;2.25;;;7.20;99.90;;;;;;4896844;29;20230;-66
2022/03/30 12:35:19;;;;;;;3.63;2.35;;;7.10;99.90;;;;;;4896651;29;20216;-65
2022/03/30 12:37:49;;;;;;;2.38;2.20;;;7.10;99.90;;;;;;4896910;29;20231;-67
2022/03/30 12:40:20;;;;;;;3.63;1.83;;;7.10;99.90;;;;;;4895037;29;20258;-66
2022/03/30 12:42:48;;;;;;;3.72;2.03;;;7.10;99.90;;;;;;4889818;29;20203;-66
2022/03/30 12:45:17;;;;;;;2.05;1.95;;;7.10;99.90;;;;;;4896243;29;20199;-66
2022/03/30 12:47:50;;;;;;;2.45;2.03;;;7.10;99.90;;;;;;4896043;29;20274;-67
2022/03/30 12:50:19;;;;;;;3.35;3.15;;;7.10;99.90;;;;;;4894947;29;20215;-66
2022/03/30 12:52:49;;;;;;;2.60;2.38;;;7.10;99.90;;;;;;4893379;29;20299;-66
2022/03/30 12:55:19;;;;;;;2.20;1.92;;;7.10;99.90;;;;;;4895474;29;20682;-66
2022/03/30 12:57:55;;;;;;;1.73;1.73;;;7.10;99.90;;;;;;4893551;29;20580;-66
2022/03/30 13:00:24;;;;;;;2.67;2.00;;;7.00;99.90;;;;;;4885659;29;20283;-67
2022/03/30 13:03:08;;;;;;;1.52;1.42;;;7.10;99.90;;;;;;4888011;29;20217;-66
2022/03/30 13:05:35;;;;;;;1.00;1.00;;;7.00;99.90;;;;;;4882069;29;20266;-65
2022/03/30 13:08:09;;;;;;;2.65;2.38;;;7.00;99.90;;;;;;4895272;29;20259;-66
2022/03/30 13:10:50;;;;;;;1.35;1.30;;;7.00;99.90;;;;;;4888286;29;20299;-66
2022/03/30 13:13:18;;;;;;;1.60;1.60;;;7.00;99.90;;;;;;4876917;29;20228;-65
2022/03/30 13:15:45;;;;;;;1.73;1.63;;;7.00;99.90;;;;;;4887341;29;20279;-66
2022/03/30 13:18:18;;;;;;;1.27;1.27;;;7.00;99.90;;;;;;4887568;29;20860;-66
2022/03/30 13:20:55;;;;;;;2.08;2.05;;;6.90;99.90;;;;;;4883723;29;20232;-66
2022/03/30 13:23:38;;;;;;;2.83;1.60;;;6.90;99.90;;;;;;4890474;29;20215;-66
2022/03/30 13:26:06;;;;;;;1.70;1.60;;;6.90;99.90;;;;;;4877505;29;20275;-66
2022/03/30 13:28:32;;;;;;;2.60;1.92;;;6.90;99.90;;;;;;4886631;29;20211;-66
2022/03/30 13:31:00;;;;;;;1.73;1.70;;;6.80;99.90;;;;;;4876324;29;20228;-67
2022/03/30 13:33:26;;;;;;;3.55;1.90;;;6.80;99.90;;;;;;4885637;29;20624;-67
2022/03/30 13:35:54;;;;;;;1.38;1.27;;;6.80;99.90;;;;;;4892494;29;20212;-67
2022/03/30 13:38:24;;;;;;;1.70;1.60;;;6.70;99.90;;;;;;4882265;29;20208;-67
2022/03/30 13:40:51;;;;;;;1.60;1.60;;;6.60;99.90;;;;;;4876293;29;20231;-67
2022/03/30 13:43:18;;;;;;;5.65;3.88;;;6.50;99.90;;;;;;4877515;29;20203;-66
2022/03/30 13:45:45;;;;;;;1.83;1.73;;;6.50;99.90;;;;;;4876557;29;20259;-67
2022/03/30 13:48:12;;;;;;;1.75;1.40;;;6.50;99.90;;;;;;4877001;29;20219;-66
2022/03/30 13:50:39;;;;;;;3.50;1.70;;;6.40;99.90;;;;;;4889260;29;20243;-66
2022/03/30 13:53:05;;;;;;;4.40;2.45;;;6.50;99.90;;;;;;4883686;29;20226;-66
2022/03/30 13:55:35;;;;;;;2.95;2.22;;;6.50;99.90;;;;;;4886675;29;20206;-65
2022/03/30 13:58:04;;;;;;;2.17;1.90;;;6.50;99.90;;;;;;4889488;29;20218;-65
2022/03/30 14:00:31;;;;;;;1.98;1.77;;;6.50;99.90;;;;;;4886760;29;20307;-65
2022/03/30 14:02:59;;;;;;;2.08;1.67;;;6.40;99.90;;;;;;4875386;29;20697;-67
2022/03/30 14:05:27;;;;;;;2.55;2.20;;;6.40;99.90;;;;;;4885845;29;20212;-66
2022/03/30 14:07:53;;;;;;;1.60;1.50;;;6.40;99.90;;;;;;4893795;29;20286;-66
2022/03/30 14:10:21;;;;;;;4.50;2.03;;;6.40;99.90;;;;;;4881842;29;20274;-67
2022/03/30 14:12:49;;;;;;;1.90;1.90;;;6.40;99.90;;;;;;4885911;29;20223;-67
2022/03/30 14:15:17;;;;;;;2.28;2.13;;;6.40;99.90;;;;;;4895080;29;20238;-67
2022/03/30 14:17:44;;;;;;;2.20;2.10;;;6.40;99.90;;;;;;4888257;29;20319;-65
2022/03/30 14:20:12;;;;;;;3.03;2.83;;;6.40;99.90;;;;;;4887547;29;20214;-66
2022/03/30 14:22:39;;;;;;;2.50;1.73;;;6.40;99.90;;;;;;4884060;29;20310;-66
2022/03/30 14:25:08;;;;;;;2.90;1.92;;;6.40;99.90;;;;;;4893587;29;20592;-67
2022/03/30 14:27:34;;;;;;;1.83;1.75;;;6.40;99.90;;;;;;4888054;29;20226;-66
2022/03/30 14:30:03;;;;;;;3.33;1.83;;;6.40;99.90;;;;;;4882629;29;20211;-67
2022/03/30 14:32:30;;;;;;;1.90;1.80;;;6.30;99.90;;;;;;4889145;29;20262;-66
2022/03/30 14:34:57;;;;;;;3.83;2.03;;;6.30;99.90;;;;;;4885275;29;20629;-67
2022/03/30 14:37:25;;;;;;;2.42;2.33;;;6.30;99.90;;;;;;4887509;29;20631;-67
2022/03/30 14:39:52;;;;;;;2.67;1.80;;;6.30;99.90;;;;;;4893868;29;20219;-67
2022/03/30 14:42:18;;;;;;;1.65;1.65;;;6.30;99.90;;;;;;4881958;29;20228;-66
2022/03/30 14:44:45;;;;;;;2.00;1.50;;;6.30;99.90;;;;;;4894556;29;20638;-66
2022/03/30 14:47:13;;;;;;;1.75;1.73;;;6.30;99.90;;;;;;4878865;29;20264;-66
2022/03/30 14:49:40;;;;;;;3.35;2.08;;;6.30;99.90;;;;;;4875375;29;20678;-66
2022/03/30 14:52:09;;;;;;;6.05;2.00;;;6.30;99.90;;;;;;4875920;29;20307;-67
2022/03/30 14:54:35;;;;;;;2.00;1.83;;;6.20;99.90;;;;;;4884390;29;20250;-66
2022/03/30 14:57:02;;;;;;;1.85;1.27;;;6.20;99.90;;;;;;4890418;29;20214;-65
2022/03/30 14:59:29;;;;;;;2.15;2.05;;;6.20;99.90;;;;;;4885465;29;20654;-66
2022/03/30 15:01:56;;;;;;;3.17;2.20;;;6.20;99.90;;;;;;4893878;29;20235;-67
2022/03/30 15:04:24;;;;;;;2.08;1.45;;;6.20;99.90;;;;;;4890875;29;20208;-67
2022/03/30 15:06:50;;;;;;;1.73;1.65;;;6.20;99.90;;;;;;4879450;29;20215;-67
2022/03/30 15:09:17;;;;;;;2.08;1.98;;;6.20;99.90;;;;;;4878662;29;20216;-66
2022/03/30 15:11:44;;;;;;;1.95;1.80;;;6.20;99.90;;;;;;4885261;29;20305;-66
2022/03/30 15:14:10;;;;;;;1.90;1.70;;;6.20;99.90;;;;;;4883089;29;20228;-65
2022/03/30 15:16:37;;;;;;;1.92;1.83;;;6.30;99.90;;;;;;4891295;29;20307;-66
2022/03/30 15:19:04;;;;;;;2.38;2.17;;;6.20;99.90;;;;;;4893464;29;20268;-65
2022/03/30 15:21:32;;;;;;;2.60;2.17;;;6.30;99.90;;;;;;4883688;29;20236;-65
2022/03/30 15:23:59;;;;;;;1.92;1.83;;;6.30;99.90;;;;;;4888971;29;20212;-67
2022/03/30 15:26:25;;;;;;;2.25;2.05;;;6.30;99.90;;;;;;4879097;29;20208;-67
2022/03/30 15:28:52;;;;;;;2.40;2.30;;;6.40;99.90;;;;;;4892535;29;20227;-67
2022/03/30 15:31:20;;;;;;;2.25;2.05;;;6.50;99.90;;;;;;4892873;29;20238;-67
2022/03/30 15:33:46;;;;;;;1.40;1.40;;;6.50;99.90;;;;;;4889575;29;20617;-66
2022/03/30 15:36:16;;;;;;;4.20;2.00;;;6.50;99.90;;;;;;4891841;29;20572;-66
2022/03/30 15:38:45;;;;;;;1.52;1.45;;;6.60;99.90;;;;;;4878425;29;20230;-66
2022/03/30 15:41:13;;;;;;;2.67;2.13;;;6.60;99.90;;;;;;4893163;29;20245;-66
2022/03/30 15:43:40;;;;;;;1.42;1.42;;;6.60;99.90;;;;;;4896452;29;20215;-67
2022/03/30 15:46:07;;;;;;;1.65;1.55;;;6.60;99.90;;;;;;4896636;29;20286;-67
2022/03/30 15:48:34;;;;;;;1.85;1.83;;;6.60;99.90;;;;;;4894589;29;20378;-66
2022/03/30 15:51:01;;;;;;;3.58;1.85;;;6.70;99.90;;;;;;4896778;29;20231;-65
2022/03/30 15:53:28;;;;;;;1.85;1.70;;;6.70;99.90;;;;;;4895098;29;20259;-65
2022/03/30 15:55:57;;;;;;;2.25;1.40;;;6.70;99.90;;;;;;4893256;29;20548;-66
2022/03/30 15:58:26;;;;;;;2.10;2.00;;;6.70;99.90;;;;;;4901193;29;20226;-66
2022/03/30 16:00:52;;;;;;;2.00;1.90;;;6.80;99.90;;;;;;4891991;29;20294;-65
2022/03/30 16:03:20;;;;;;;3.70;1.45;;;6.80;99.90;;;;;;4880850;29;20203;-66
2022/03/30 16:05:48;;;;;;;2.70;2.08;;;6.80;99.90;;;;;;4894224;29;20314;-66
2022/03/30 16:13:45;;;;;;;3.08;1.83;;;6.90;99.90;;;;;;4893150;29;20257;-65
2022/03/30 16:16:11;;;;;;;1.92;1.83;;;6.90;99.90;;;;;;4878087;29;20216;-66
2022/03/30 16:18:38;;;;;;;2.38;2.28;;;6.80;99.90;;;;;;4886878;29;20611;-65
2022/03/30 16:21:05;;;;;;;2.30;1.90;;;6.90;99.90;;;;;;4892527;29;20250;-66
2022/03/30 16:23:33;;;;;;;3.35;2.63;;;6.90;99.90;;;;;;4899129;29;20214;-66
2022/03/30 16:26:02;;;;;;;2.13;1.90;;;6.90;99.90;;;;;;4892390;29;20219;-65
2022/03/30 16:28:32;;;;;;;2.10;2.00;;;6.90;99.90;;;;;;4895786;29;20219;-66
2022/03/30 16:30:59;;;;;;;1.48;1.45;;;6.90;99.90;;;;;;4892798;29;20235;-66
2022/03/30 16:33:26;;;;;;;3.00;2.35;;;6.90;99.90;;;;;;4892929;29;20601;-66
2022/03/30 16:35:53;;;;;;;2.28;1.90;;;6.90;99.90;;;;;;4893552;29;20561;-66
2022/03/30 16:38:21;;;;;;;2.65;2.03;;;6.90;99.90;;;;;;4893024;29;20207;-66
2022/03/30 16:40:47;;;;;;;3.60;1.80;;;6.90;99.90;;;;;;4892278;29;20235;-67
2022/03/30 16:43:15;;;;;;;1.65;1.60;;;6.90;99.90;;;;;;4893340;29;20330;-65
2022/03/30 16:45:42;;;;;;;1.80;1.80;;;6.90;99.90;;;;;;4893257;29;20768;-66
2022/03/30 16:48:09;;;;;;;3.05;2.85;;;6.80;99.90;;;;;;4892462;29;20343;-66
2022/03/30 16:50:37;;;;;;;1.70;1.60;;;6.80;99.90;;;;;;4891427;29;20218;-66
2022/03/30 16:53:04;;;;;;;1.92;1.83;;;6.70;99.90;;;;;;4893593;29;20254;-66
2022/03/30 16:55:31;;;;;;;3.80;2.25;;;6.70;99.90;;;;;;4892433;29;20207;-65
2022/03/30 16:57:58;;;;;;;1.75;1.70;;;6.70;99.90;;;;;;4893161;29;20219;-65
2022/03/30 17:00:27;;;;;;;3.42;3.13;;;6.70;99.90;;;;;;4888884;29;20227;-67
2022/03/30 17:02:54;;;;;;;2.58;2.47;;;6.70;99.90;;;;;;4873819;29;20215;-66
2022/03/30 17:05:22;;;;;;;1.95;1.85;;;6.70;99.90;;;;;;4893047;29;20590;-66
2022/03/30 17:09:57;;;;;;;2.47;1.70;;;6.70;99.90;;;;;;4890644;29;20267;-66
2022/03/30 17:10:34;;;;;;;2.60;1.75;;;6.60;99.90;;;;;;4892054;29;20215;-67
2022/03/30 17:13:02;;;;;;;1.47;1.47;;;6.60;99.90;;;;;;4892405;29;20249;-67
2022/03/30 17:15:30;;;;;;;2.10;2.00;;;6.50;99.90;;;;;;4889701;29;20947;-67
2022/03/30 17:17:56;;;;;;;3.25;3.05;;;6.50;99.90;;;;;;4892873;29;20253;-67
2022/03/30 17:20:23;;;;;;;2.95;2.75;;;6.50;99.90;;;;;;4892378;29;20223;-66